Time;durP1;ratioP1;P1;durP2;ratioP2;P2;SDS_P1;SDS_P2;PMS_P1;PMS_P2;Temp;Humidity;BMP_temperature;BMP_pressure;BME280_temperature;BME280_humidity;BME280_pressure;Samples;Min_cycle;Max_cycle;Signal;HPM_P1;HPM_P2
2023/08/18 00:01:14;;;;;;;215.85;198.98;;;;;;;;;;5008176;28;20049;-60
2023/08/18 00:03:39;;;;;;;174.30;161.20;;;;;;;;;;5010655;28;20038;-61
2023/08/18 00:06:05;;;;;;;192.57;178.23;;;;;;;;;;5010285;28;20014;-59
2023/08/18 00:08:30;;;;;;;208.52;192.35;;;;;;;;;;5009896;28;20495;-58
2023/08/18 00:10:55;;;;;;;180.57;167.30;;;;;;;;;;5010434;28;20191;-59
2023/08/18 00:13:20;;;;;;;163.10;150.93;;;;;;;;;;5009901;28;20026;-58
2023/08/18 00:15:45;;;;;;;196.23;180.93;;;;;;;;;;5014698;28;20018;-61
2023/08/18 00:18:11;;;;;;;212.10;196.17;;;;;;;;;;5005005;28;20059;-60
2023/08/18 00:20:36;;;;;;;214.17;197.50;;;;;;;;;;5011603;28;20052;-59
2023/08/18 00:23:01;;;;;;;176.47;162.63;;;;;;;;;;5011403;28;20036;-59
2023/08/18 00:25:26;;;;;;;125.10;115.60;;;;;;;;;;5012996;28;20447;-59
2023/08/18 00:27:54;;;;;;;205.05;189.43;;;;;;;;;;5012631;28;20033;-63
2023/08/18 00:30:24;;;;;;;147.98;136.52;;;;;;;;;;5014784;28;20397;-60
2023/08/18 00:32:49;;;;;;;138.15;127.05;;;;;;;;;;5013184;28;20014;-58
2023/08/18 00:35:14;;;;;;;147.40;136.17;;;;;;;;;;5015002;28;20435;-59
2023/08/18 00:37:42;;;;;;;192.37;177.30;;;;;;;;;;5016968;28;20028;-60
2023/08/18 00:40:08;;;;;;;135.77;125.90;;;;;;;;;;5016634;28;20072;-60
2023/08/18 00:42:33;;;;;;;200.30;183.95;;;;;;;;;;5017565;28;20018;-59
2023/08/18 00:44:58;;;;;;;216.37;200.50;;;;;;;;;;5008145;28;20014;-59
2023/08/18 00:47:23;;;;;;;225.03;207.30;;;;;;;;;;5015225;28;20038;-59
2023/08/18 00:49:48;;;;;;;159.20;147.13;;;;;;;;;;5013649;28;20565;-60
2023/08/18 00:52:14;;;;;;;172.88;159.45;;;;;;;;;;5015700;28;20033;-61
2023/08/18 00:54:39;;;;;;;182.53;167.73;;;;;;;;;;5011589;28;20030;-59
2023/08/18 00:57:04;;;;;;;171.07;157.93;;;;;;;;;;5014455;28;20435;-60
2023/08/18 00:59:30;;;;;;;159.43;146.97;;;;;;;;;;5013134;28;20043;-60
2023/08/18 01:02:02;;;;;;;118.78;109.75;;;;;;;;;;5016685;28;20452;-60
2023/08/18 01:04:28;;;;;;;207.13;190.60;;;;;;;;;;5010686;28;20038;-60
2023/08/18 01:06:53;;;;;;;132.77;123.00;;;;;;;;;;5015567;28;20236;-59
2023/08/18 01:09:19;;;;;;;205.03;189.30;;;;;;;;;;5014623;28;20564;-61
2023/08/18 01:11:44;;;;;;;192.60;176.83;;;;;;;;;;5014062;28;20022;-61
2023/08/18 01:14:26;;;;;;;163.93;151.57;;;;;;;;;;5012709;28;20048;-59
2023/08/18 01:16:55;;;;;;;184.85;170.57;;;;;;;;;;5011186;28;20427;-59
2023/08/18 01:19:21;;;;;;;163.98;151.32;;;;;;;;;;5013893;28;20017;-60
2023/08/18 01:21:50;;;;;;;157.50;145.43;;;;;;;;;;5022265;28;20364;-59
2023/08/18 01:24:15;;;;;;;141.10;130.75;;;;;;;;;;5012024;28;20022;-59
2023/08/18 01:26:41;;;;;;;177.73;164.50;;;;;;;;;;5011636;28;20022;-61
2023/08/18 01:29:06;;;;;;;168.45;155.50;;;;;;;;;;5016249;28;20037;-59
2023/08/18 01:31:31;;;;;;;154.10;142.33;;;;;;;;;;5013081;28;20121;-59
2023/08/18 01:34:01;;;;;;;206.60;190.88;;;;;;;;;;5013838;28;20044;-61
2023/08/18 01:36:29;;;;;;;151.05;139.48;;;;;;;;;;5014313;28;20025;-60
2023/08/18 01:38:55;;;;;;;156.52;144.65;;;;;;;;;;5013644;28;20025;-60
2023/08/18 01:41:23;;;;;;;197.68;182.15;;;;;;;;;;5013904;28;20395;-59
2023/08/18 01:43:48;;;;;;;172.50;159.65;;;;;;;;;;5012357;28;20071;-60
2023/08/18 01:46:13;;;;;;;227.77;210.37;;;;;;;;;;5012198;28;20022;-60
2023/08/18 01:48:39;;;;;;;218.13;202.02;;;;;;;;;;5011133;28;20026;-61
2023/08/18 01:51:04;;;;;;;191.83;177.03;;;;;;;;;;5013544;28;20448;-60
2023/08/18 01:53:29;;;;;;;223.13;205.43;;;;;;;;;;5009233;28;20041;-61
2023/08/18 01:55:54;;;;;;;230.27;213.25;;;;;;;;;;5010979;28;20113;-59
2023/08/18 01:58:19;;;;;;;176.67;163.50;;;;;;;;;;5007933;28;20030;-60
2023/08/18 02:00:44;;;;;;;192.13;177.53;;;;;;;;;;5000585;28;20450;-59
2023/08/18 02:03:09;;;;;;;135.68;125.70;;;;;;;;;;5012106;28;20038;-59
2023/08/18 02:05:39;;;;;;;189.80;175.23;;;;;;;;;;5003994;28;20115;-61
2023/08/18 02:08:04;;;;;;;177.60;163.73;;;;;;;;;;5004280;28;20482;-60
2023/08/18 02:10:29;;;;;;;182.13;168.18;;;;;;;;;;4993899;28;20045;-61
2023/08/18 02:12:54;;;;;;;176.23;163.10;;;;;;;;;;4996165;28;20473;-60
2023/08/18 02:15:20;;;;;;;185.10;170.65;;;;;;;;;;4996392;28;20029;-60
2023/08/18 02:17:45;;;;;;;132.70;123.30;;;;;;;;;;5003578;28;20030;-59
2023/08/18 02:20:10;;;;;;;111.43;102.50;;;;;;;;;;5012161;28;20029;-60
2023/08/18 02:22:35;;;;;;;163.60;151.33;;;;;;;;;;5008670;28;20164;-60
2023/08/18 02:25:00;;;;;;;173.77;161.20;;;;;;;;;;5004037;28;20464;-60
2023/08/18 02:27:26;;;;;;;171.23;158.77;;;;;;;;;;5010262;28;20041;-61
2023/08/18 02:29:52;;;;;;;150.57;138.77;;;;;;;;;;5014861;28;20421;-60
2023/08/18 02:32:18;;;;;;;;;;;;;;;;;;5008771;28;20071;-60
2023/08/18 02:34:43;;;;;;;152.35;141.40;;;;;;;;;;5002414;28;19918;-59
2023/08/18 02:37:08;;;;;;;159.67;147.53;;;;;;;;;;4999642;28;20026;-59
2023/08/18 02:39:34;;;;;;;131.00;121.73;;;;;;;;;;4997792;28;20022;-61
2023/08/18 02:41:59;;;;;;;153.70;142.35;;;;;;;;;;5008025;28;20461;-59
2023/08/18 02:44:25;;;;;;;196.60;181.23;;;;;;;;;;4996235;28;20489;-60
2023/08/18 02:46:51;;;;;;;165.20;153.02;;;;;;;;;;5004717;28;20049;-59
2023/08/18 02:49:16;;;;;;;193.67;178.50;;;;;;;;;;5002985;28;20185;-60
2023/08/18 02:51:41;;;;;;;162.23;150.10;;;;;;;;;;5003176;28;20061;-60
2023/08/18 02:54:06;;;;;;;161.15;148.88;;;;;;;;;;5007234;28;20067;-58
2023/08/18 02:56:32;;;;;;;159.30;147.07;;;;;;;;;;4992144;28;20041;-59
2023/08/18 02:58:57;;;;;;;153.90;141.55;;;;;;;;;;5009692;28;20111;-60
2023/08/18 03:01:22;;;;;;;194.33;179.17;;;;;;;;;;5005451;28;20057;-59
2023/08/18 03:03:47;;;;;;;169.90;157.13;;;;;;;;;;5004709;28;20033;-58
2023/08/18 03:06:12;;;;;;;156.80;145.13;;;;;;;;;;5014357;28;20492;-59
2023/08/18 03:08:39;;;;;;;112.87;104.37;;;;;;;;;;5013855;28;20018;-58
2023/08/18 03:11:04;;;;;;;;;;;;;;;;;;5005288;28;20476;-58
2023/08/18 03:13:30;;;;;;;123.20;113.43;;;;;;;;;;5009889;28;19909;-58
2023/08/18 03:15:55;;;;;;;176.07;163.43;;;;;;;;;;5010742;28;20018;-59
2023/08/18 03:18:20;;;;;;;217.43;199.10;;;;;;;;;;5011599;28;20009;-59
2023/08/18 03:20:46;;;;;;;134.73;124.70;;;;;;;;;;5010035;28;20621;-60
2023/08/18 03:23:13;;;;;;;171.80;158.80;;;;;;;;;;5010862;28;20033;-59
2023/08/18 03:25:38;;;;;;;155.52;143.68;;;;;;;;;;5010788;28;20299;-60
2023/08/18 03:28:03;;;;;;;202.83;187.90;;;;;;;;;;5007528;28;20029;-60
2023/08/18 03:30:28;;;;;;;155.93;143.55;;;;;;;;;;5010241;28;20079;-60
2023/08/18 03:32:55;;;;;;;157.87;146.40;;;;;;;;;;5010839;28;20257;-60
2023/08/18 03:35:20;;;;;;;172.85;159.68;;;;;;;;;;5010586;28;20492;-59
2023/08/18 03:37:45;;;;;;;169.20;156.27;;;;;;;;;;5010448;28;20014;-60
2023/08/18 03:40:10;;;;;;;173.77;160.85;;;;;;;;;;5010214;28;20026;-60
2023/08/18 03:42:36;;;;;;;203.77;187.68;;;;;;;;;;5009092;28;20032;-60
2023/08/18 03:45:01;;;;;;;133.93;123.57;;;;;;;;;;5009172;28;20385;-61
2023/08/18 03:47:26;;;;;;;186.55;171.70;;;;;;;;;;5009949;28;20053;-59
2023/08/18 03:49:51;;;;;;;146.53;134.83;;;;;;;;;;5010342;28;20126;-60
2023/08/18 03:52:17;;;;;;;143.55;132.45;;;;;;;;;;5010757;28;20217;-60
2023/08/18 03:54:42;;;;;;;114.93;106.37;;;;;;;;;;5010309;28;20494;-60
2023/08/18 03:57:07;;;;;;;138.05;127.70;;;;;;;;;;5010227;28;20022;-60
2023/08/18 03:59:32;;;;;;;194.77;179.23;;;;;;;;;;5007327;28;20045;-59
2023/08/18 04:01:57;;;;;;;161.70;149.75;;;;;;;;;;5010491;28;20389;-59
2023/08/18 04:04:23;;;;;;;169.67;156.93;;;;;;;;;;5008773;28;20141;-60
2023/08/18 04:06:48;;;;;;;146.10;135.70;;;;;;;;;;5010955;28;20014;-62
2023/08/18 04:09:16;;;;;;;213.77;197.73;;;;;;;;;;5011770;28;20544;-61
2023/08/18 04:11:42;;;;;;;242.50;221.23;;;;;;;;;;5013670;28;20093;-60
2023/08/18 04:14:07;;;;;;;192.75;177.32;;;;;;;;;;5013349;28;20030;-60
2023/08/18 04:16:32;;;;;;;107.33;99.17;;;;;;;;;;5007028;28;20033;-60
2023/08/18 04:18:58;;;;;;;177.77;164.77;;;;;;;;;;5010086;28;20021;-60
2023/08/18 04:21:23;;;;;;;168.23;155.52;;;;;;;;;;5017137;28;20513;-60
2023/08/18 04:23:48;;;;;;;156.00;143.68;;;;;;;;;;5010711;28;20049;-61
2023/08/18 04:26:14;;;;;;;143.97;133.37;;;;;;;;;;5013269;28;20037;-62
2023/08/18 04:28:39;;;;;;;141.07;130.20;;;;;;;;;;5019960;28;20009;-60
2023/08/18 04:31:05;;;;;;;169.03;156.43;;;;;;;;;;5021028;28;20107;-60
2023/08/18 04:33:30;;;;;;;237.60;218.07;;;;;;;;;;5012014;28;20029;-61
2023/08/18 04:35:55;;;;;;;163.47;151.27;;;;;;;;;;5012209;28;20022;-60
2023/08/18 04:38:20;;;;;;;123.93;115.33;;;;;;;;;;5003954;28;20030;-61
2023/08/18 04:40:55;;;;;;;151.40;139.23;;;;;;;;;;5007941;28;20026;-59
2023/08/18 04:43:20;;;;;;;141.85;131.45;;;;;;;;;;5013531;28;20014;-60
2023/08/18 04:45:45;;;;;;;145.33;134.47;;;;;;;;;;5007405;28;20385;-60
2023/08/18 04:48:10;;;;;;;156.73;145.27;;;;;;;;;;5007812;28;20044;-60
2023/08/18 04:50:36;;;;;;;121.73;112.43;;;;;;;;;;5007368;28;20527;-60
2023/08/18 04:53:01;;;;;;;109.60;101.47;;;;;;;;;;5007586;28;20025;-60
2023/08/18 04:55:26;;;;;;;146.15;134.52;;;;;;;;;;5009522;28;20358;-60
2023/08/18 04:57:52;;;;;;;154.67;142.77;;;;;;;;;;5011719;28;20121;-60
2023/08/18 05:00:17;;;;;;;186.10;172.05;;;;;;;;;;5001469;28;20112;-61
2023/08/18 05:02:42;;;;;;;233.07;214.53;;;;;;;;;;4995867;28;20481;-61
2023/08/18 05:05:07;;;;;;;175.10;161.73;;;;;;;;;;4999898;28;20034;-61
2023/08/18 05:07:33;;;;;;;198.00;182.10;;;;;;;;;;5001847;28;20022;-60
2023/08/18 05:09:58;;;;;;;135.07;124.60;;;;;;;;;;4997856;28;20049;-60
2023/08/18 05:12:23;;;;;;;196.27;180.67;;;;;;;;;;5001688;28;20505;-61
2023/08/18 05:14:48;;;;;;;174.93;161.13;;;;;;;;;;5007540;28;20093;-61
2023/08/18 05:17:13;;;;;;;155.57;143.57;;;;;;;;;;5003711;28;20032;-60
2023/08/18 05:19:38;;;;;;;152.80;141.47;;;;;;;;;;5003305;28;20029;-61
2023/08/18 05:22:04;;;;;;;169.47;156.50;;;;;;;;;;5005034;28;20029;-60
2023/08/18 05:24:29;;;;;;;154.93;143.30;;;;;;;;;;5003586;28;20515;-60
2023/08/18 05:26:54;;;;;;;191.80;176.98;;;;;;;;;;5002614;28;20032;-61
2023/08/18 05:29:19;;;;;;;182.80;168.00;;;;;;;;;;5008531;28;20573;-60
2023/08/18 05:31:45;;;;;;;144.03;132.77;;;;;;;;;;4992716;28;20025;-61
2023/08/18 05:34:10;;;;;;;165.50;152.00;;;;;;;;;;4996370;28;20022;-61
2023/08/18 05:36:36;;;;;;;139.77;128.60;;;;;;;;;;5002871;28;20053;-61
2023/08/18 05:39:01;;;;;;;162.82;150.15;;;;;;;;;;5002138;28;20033;-60
2023/08/18 05:41:26;;;;;;;184.13;169.83;;;;;;;;;;5000736;28;20121;-61
2023/08/18 05:43:51;;;;;;;143.80;132.37;;;;;;;;;;5005414;28;20022;-59
2023/08/18 05:46:17;;;;;;;165.60;152.80;;;;;;;;;;5005579;28;20057;-59
2023/08/18 05:48:42;;;;;;;167.03;153.77;;;;;;;;;;5002039;28;20030;-60
2023/08/18 05:51:07;;;;;;;191.57;175.73;;;;;;;;;;4998704;28;20060;-59
2023/08/18 05:53:32;;;;;;;157.30;143.90;;;;;;;;;;5000369;28;20026;-59
2023/08/18 05:55:57;;;;;;;224.57;208.27;;;;;;;;;;5007821;28;20548;-59
2023/08/18 05:58:23;;;;;;;101.53;93.63;;;;;;;;;;5003108;28;20026;-56
2023/08/18 06:00:49;;;;;;;212.40;195.77;;;;;;;;;;5003232;28;20032;-58
2023/08/18 06:03:14;;;;;;;210.95;195.05;;;;;;;;;;5007054;28;20022;-58
2023/08/18 06:05:40;;;;;;;190.47;175.17;;;;;;;;;;5007691;28;20041;-58
2023/08/18 06:08:05;;;;;;;;;;;;;;;;;;5003208;28;20153;-58
2023/08/18 06:10:30;;;;;;;191.75;176.93;;;;;;;;;;5008560;28;19924;-59
2023/08/18 06:12:55;;;;;;;218.30;201.87;;;;;;;;;;5008644;28;20021;-59
2023/08/18 06:15:20;;;;;;;;;;;;;;;;;;5005269;28;20511;-58
2023/08/18 06:17:45;;;;;;;242.55;224.35;;;;;;;;;;5007202;28;19964;-58
2023/08/18 06:20:11;;;;;;;212.63;196.38;;;;;;;;;;5012054;28;20050;-59
2023/08/18 06:22:37;;;;;;;222.40;205.73;;;;;;;;;;4999754;28;20404;-58
2023/08/18 06:25:03;;;;;;;206.20;190.20;;;;;;;;;;5011604;28;20018;-57
2023/08/18 06:27:29;;;;;;;205.60;189.75;;;;;;;;;;4993084;28;20023;-59
2023/08/18 06:29:54;;;;;;;188.80;173.90;;;;;;;;;;4992096;28;20180;-58
2023/08/18 06:32:19;;;;;;;;;;;;;;;;;;5008976;28;20156;-58
2023/08/18 06:34:44;;;;;;;202.85;186.75;;;;;;;;;;5006190;28;19913;-59
2023/08/18 06:37:09;;;;;;;240.30;222.43;;;;;;;;;;4995503;28;20094;-58
2023/08/18 06:39:34;;;;;;;188.73;173.83;;;;;;;;;;4992418;28;20451;-58
2023/08/18 06:42:00;;;;;;;228.15;210.60;;;;;;;;;;4992104;28;20018;-58
2023/08/18 06:44:25;;;;;;;;;;;;;;;;;;4992852;28;20026;-57
2023/08/18 06:46:50;;;;;;;209.17;193.37;;;;;;;;;;4991686;28;20284;-58
2023/08/18 06:49:15;;;;;;;208.80;191.05;;;;;;;;;;4997205;28;20057;-59
2023/08/18 06:51:40;;;;;;;;;;;;;;;;;;4998548;28;20049;-59
2023/08/18 06:54:06;;;;;;;124.33;114.13;;;;;;;;;;4992248;28;19916;-58
2023/08/18 06:56:31;;;;;;;;;;;;;;;;;;4992099;28;20393;-59
2023/08/18 06:58:56;;;;;;;197.45;181.88;;;;;;;;;;4992050;28;19925;-58
2023/08/18 07:01:21;;;;;;;204.27;188.37;;;;;;;;;;4997814;28;20495;-58
2023/08/18 07:03:47;;;;;;;;;;;;;;;;;;5009509;28;20042;-58
2023/08/18 07:06:13;;;;;;;112.43;103.15;;;;;;;;;;4991241;28;19910;-58
2023/08/18 07:08:38;;;;;;;148.57;136.70;;;;;;;;;;5011214;28;20025;-58
2023/08/18 07:11:03;;;;;;;178.20;163.85;;;;;;;;;;5011499;28;20017;-58
2023/08/18 07:13:28;;;;;;;217.23;200.40;;;;;;;;;;5011124;28;20029;-57
2023/08/18 07:15:53;;;;;;;;;;;;;;;;;;5012278;28;20440;-57
2023/08/18 07:18:18;;;;;;;183.50;168.95;;;;;;;;;;5009678;28;20375;-58
2023/08/18 07:20:45;;;;;;;208.73;193.00;;;;;;;;;;4998029;28;20108;-58
2023/08/18 07:23:10;;;;;;;198.15;182.38;;;;;;;;;;4997357;28;20524;-57
2023/08/18 07:25:36;;;;;;;215.63;198.90;;;;;;;;;;4996893;28;20030;-57
2023/08/18 07:28:02;;;;;;;265.25;244.50;;;;;;;;;;5005682;28;20105;-58
2023/08/18 07:30:28;;;;;;;;;;;;;;;;;;5009307;28;20556;-58
2023/08/18 07:32:54;;;;;;;186.98;172.15;;;;;;;;;;5003106;28;19916;-58
2023/08/18 07:35:19;;;;;;;269.77;248.27;;;;;;;;;;5009677;28;20033;-58
2023/08/18 07:37:44;;;;;;;249.25;230.45;;;;;;;;;;5000754;28;20393;-58
2023/08/18 07:40:09;;;;;;;;;;;;;;;;;;5011266;28;20084;-58
2023/08/18 07:42:35;;;;;;;175.32;161.55;;;;;;;;;;5011048;28;19995;-58
2023/08/18 07:45:02;;;;;;;187.15;172.57;;;;;;;;;;5000902;28;20032;-59
2023/08/18 07:47:28;;;;;;;244.13;224.60;;;;;;;;;;5005813;28;20072;-58
2023/08/18 07:49:53;;;;;;;;;;;;;;;;;;5005826;28;20109;-58
2023/08/18 07:52:18;;;;;;;168.18;154.65;;;;;;;;;;5014018;28;19969;-56
2023/08/18 07:54:43;;;;;;;;;;;;;;;;;;5007446;28;20381;-58
2023/08/18 07:57:08;;;;;;;233.73;216.15;;;;;;;;;;4991813;28;19910;-59
2023/08/18 07:59:33;;;;;;;201.80;185.87;;;;;;;;;;5007931;28;20119;-58
2023/08/18 08:01:58;;;;;;;239.83;220.53;;;;;;;;;;5002578;28;20024;-57
2023/08/18 08:04:24;;;;;;;174.52;161.07;;;;;;;;;;5011079;28;20022;-56
2023/08/18 08:06:49;;;;;;;;;;;;;;;;;;5011251;28;20049;-56
2023/08/18 08:09:15;;;;;;;248.70;230.05;;;;;;;;;;5011033;28;19909;-58
2023/08/18 08:11:40;;;;;;;;;;;;;;;;;;5004170;28;20077;-58
2023/08/18 08:14:05;;;;;;;271.77;250.57;;;;;;;;;;4994023;28;19917;-58
2023/08/18 08:16:30;;;;;;;;;;;;;;;;;;4991410;28;20026;-58
2023/08/18 08:18:55;;;;;;;187.52;172.98;;;;;;;;;;4991310;28;19906;-56
2023/08/18 08:21:21;;;;;;;;;;;;;;;;;;4991789;28;20042;-58
2023/08/18 08:23:46;;;;;;;180.35;166.40;;;;;;;;;;4991037;28;19917;-58
2023/08/18 08:26:11;;;;;;;;;;;;;;;;;;4999174;28;20030;-57
2023/08/18 08:28:36;;;;;;;173.30;159.63;;;;;;;;;;4991042;28;20317;-58
2023/08/18 08:31:01;;;;;;;;;;;;;;;;;;4991927;28;20113;-58
2023/08/18 08:33:27;;;;;;;144.55;131.25;;;;;;;;;;4991268;28;19918;-58
2023/08/18 08:35:52;;;;;;;;;;;;;;;;;;4991844;28;20099;-58
2023/08/18 08:38:17;;;;;;;208.32;192.40;;;;;;;;;;4990290;28;19983;-59
2023/08/18 08:40:42;;;;;;;;;;;;;;;;;;4996932;28;20026;-58
2023/08/18 08:43:07;;;;;;;192.83;177.93;;;;;;;;;;5002068;28;19909;-58
2023/08/18 08:45:33;;;;;;;;;;;;;;;;;;4992291;28;20384;-58
2023/08/18 08:48:00;;;;;;;189.30;174.40;;;;;;;;;;4990614;28;19922;-58
2023/08/18 08:50:27;;;;;;;236.27;217.63;;;;;;;;;;4991140;28;20018;-58
2023/08/18 08:52:54;;;;;;;303.25;277.90;;;;;;;;;;4998118;28;20025;-58
2023/08/18 08:55:23;;;;;;;262.30;242.32;;;;;;;;;;5004536;28;20102;-58
2023/08/18 08:57:48;;;;;;;258.27;236.93;;;;;;;;;;5008939;28;20390;-57
2023/08/18 09:00:16;;;;;;;;;;;;;;;;;;5005111;28;20030;-59
2023/08/18 09:02:43;;;;;;;227.82;209.70;;;;;;;;;;5005025;28;19964;-58
2023/08/18 09:05:09;;;;;;;281.17;259.83;;;;;;;;;;5001423;28;20031;-58
2023/08/18 09:07:34;;;;;;;;;;;;;;;;;;4998498;28;21546;-58
2023/08/18 09:09:59;;;;;;;253.40;231.77;;;;;;;;;;4993928;28;19910;-58
2023/08/18 09:12:24;;;;;;;;;;;;;;;;;;4993158;28;20041;-58
2023/08/18 09:14:50;;;;;;;231.10;212.50;;;;;;;;;;4994254;28;19917;-58
2023/08/18 09:17:15;;;;;;;;;;;;;;;;;;4994324;28;20022;-58
2023/08/18 09:19:40;;;;;;;224.00;205.55;;;;;;;;;;4995757;28;19909;-58
2023/08/18 09:22:05;;;;;;;;;;;;;;;;;;5002510;28;20029;-58
2023/08/18 09:24:33;;;;;;;247.98;227.73;;;;;;;;;;4993545;28;20427;-57
2023/08/18 09:27:08;;;;;;;177.70;163.57;;;;;;;;;;4993173;28;20025;-57
2023/08/18 09:29:35;;;;;;;224.98;205.48;;;;;;;;;;4993740;28;20517;-57
2023/08/18 09:32:00;;;;;;;256.45;235.52;;;;;;;;;;4992512;28;20026;-56
2023/08/18 09:34:25;;;;;;;;;;;;;;;;;;4999448;28;20022;-57
2023/08/18 09:36:51;;;;;;;201.85;184.88;;;;;;;;;;5000806;28;19916;-57
2023/08/18 09:39:16;;;;;;;;;;;;;;;;;;4997148;28;20030;-57
2023/08/18 09:41:44;;;;;;;187.98;173.20;;;;;;;;;;4993562;28;19906;-56
2023/08/18 09:44:09;;;;;;;245.98;226.95;;;;;;;;;;4993369;28;20393;-57
2023/08/18 09:46:34;;;;;;;;;;;;;;;;;;4996191;28;20026;-57
2023/08/18 09:49:00;;;;;;;216.20;196.75;;;;;;;;;;4996813;28;19910;-57
2023/08/18 09:51:25;;;;;;;;;;;;;;;;;;5003201;28;20554;-57
2023/08/18 09:53:58;;;;;;;225.77;208.18;;;;;;;;;;5012860;28;19948;-57
2023/08/18 09:56:25;;;;;;;203.88;187.93;;;;;;;;;;5011113;28;20482;-57
2023/08/18 09:58:56;;;;;;;180.25;165.60;;;;;;;;;;4993901;28;20125;-57
2023/08/18 10:01:23;;;;;;;291.13;267.60;;;;;;;;;;5004342;28;20410;-57
2023/08/18 10:03:49;;;;;;;222.98;204.48;;;;;;;;;;4996592;28;20390;-56
2023/08/18 10:06:16;;;;;;;200.20;184.73;;;;;;;;;;5012269;28;20014;-56
2023/08/18 10:08:41;;;;;;;303.83;280.63;;;;;;;;;;5012480;28;20022;-56
2023/08/18 10:11:06;;;;;;;;;;;;;;;;;;5013399;28;20491;-56
2023/08/18 10:13:33;;;;;;;206.43;190.20;;;;;;;;;;5011595;28;19968;-56
2023/08/18 10:15:58;;;;;;;235.40;216.68;;;;;;;;;;5004657;28;20026;-57
2023/08/18 10:18:23;;;;;;;;;;;;;;;;;;5012024;28;20059;-57
2023/08/18 10:20:52;;;;;;;212.93;195.85;;;;;;;;;;5000599;28;20004;-56
2023/08/18 10:23:18;;;;;;;226.65;209.63;;;;;;;;;;5000930;28;20018;-56
2023/08/18 10:25:43;;;;;;;;;;;;;;;;;;4993995;28;20026;-56
2023/08/18 10:28:08;;;;;;;160.00;147.00;;;;;;;;;;4992557;28;20331;-56
2023/08/18 10:30:33;;;;;;;217.87;200.07;;;;;;;;;;5004543;28;20033;-56
2023/08/18 10:33:04;;;;;;;312.93;287.47;;;;;;;;;;5006833;28;20524;-57
2023/08/18 10:35:29;;;;;;;187.60;172.18;;;;;;;;;;5008088;28;20022;-56
2023/08/18 10:37:54;;;;;;;;;;;;;;;;;;5006163;28;20018;-57
2023/08/18 10:40:23;;;;;;;255.73;235.35;;;;;;;;;;4998537;28;20373;-56
2023/08/18 10:42:50;;;;;;;266.67;245.75;;;;;;;;;;4992691;28;20026;-57
2023/08/18 10:45:23;;;;;;;268.48;246.57;;;;;;;;;;5006925;28;20452;-57
2023/08/18 10:47:48;;;;;;;301.80;278.40;;;;;;;;;;5004239;28;20022;-57
2023/08/18 10:50:14;;;;;;;;;;;;;;;;;;5003783;28;20565;-57
2023/08/18 10:52:40;;;;;;;244.15;225.68;;;;;;;;;;5011545;28;19952;-57
2023/08/18 10:55:06;;;;;;;254.15;233.75;;;;;;;;;;5011787;28;20492;-57
2023/08/18 10:57:33;;;;;;;282.20;259.67;;;;;;;;;;5000372;28;20033;-56
2023/08/18 10:59:58;;;;;;;300.52;277.67;;;;;;;;;;5002604;28;20037;-58
2023/08/18 11:02:24;;;;;;;280.50;256.80;;;;;;;;;;5009526;28;20021;-58
2023/08/18 11:04:50;;;;;;;246.05;224.80;;;;;;;;;;5009410;28;20018;-58
2023/08/18 11:07:18;;;;;;;300.13;275.58;;;;;;;;;;5002710;28;20015;-57
2023/08/18 11:09:43;;;;;;;293.77;269.50;;;;;;;;;;5010980;28;20044;-57
2023/08/18 11:12:08;;;;;;;357.30;328.47;;;;;;;;;;5003325;28;20018;-57
2023/08/18 11:14:33;;;;;;;277.60;255.77;;;;;;;;;;5008056;28;20022;-57
2023/08/18 11:16:59;;;;;;;;;;;;;;;;;;5006137;28;20448;-57
2023/08/18 11:19:24;;;;;;;280.10;254.95;;;;;;;;;;5012384;28;19906;-57
2023/08/18 11:21:49;;;;;;;246.60;226.43;;;;;;;;;;5008010;28;20096;-58
2023/08/18 11:24:15;;;;;;;224.55;204.88;;;;;;;;;;5002420;28;20044;-58
2023/08/18 11:26:40;;;;;;;297.97;273.83;;;;;;;;;;5005461;28;20024;-58
2023/08/18 11:29:05;;;;;;;252.43;231.40;;;;;;;;;;5003380;28;20440;-58
2023/08/18 11:31:31;;;;;;;240.95;222.10;;;;;;;;;;5011213;28;20029;-58
2023/08/18 11:33:57;;;;;;;276.00;255.27;;;;;;;;;;5008800;28;20209;-58
2023/08/18 11:36:27;;;;;;;332.77;306.20;;;;;;;;;;5002312;28;20032;-59
2023/08/18 11:38:55;;;;;;;227.50;210.07;;;;;;;;;;5011413;28;20029;-57
2023/08/18 11:41:20;;;;;;;286.70;264.60;;;;;;;;;;5010080;28;20397;-57
2023/08/18 11:43:45;;;;;;;256.03;233.53;;;;;;;;;;5002892;28;20097;-58
2023/08/18 11:46:11;;;;;;;254.70;233.83;;;;;;;;;;5008709;28;20588;-58
2023/08/18 11:48:36;;;;;;;314.42;291.13;;;;;;;;;;5002844;28;20014;-58
2023/08/18 11:51:02;;;;;;;279.73;258.37;;;;;;;;;;5011130;28;20109;-57
2023/08/18 11:53:28;;;;;;;277.90;257.38;;;;;;;;;;5006412;28;20679;-57
2023/08/18 11:55:55;;;;;;;351.38;324.88;;;;;;;;;;5005977;28;20457;-57
2023/08/18 11:58:21;;;;;;;293.00;268.85;;;;;;;;;;5001939;28;20034;-57
2023/08/18 12:00:48;;;;;;;302.00;273.27;;;;;;;;;;5010877;28;20018;-57
2023/08/18 12:03:23;;;;;;;310.38;286.45;;;;;;;;;;5011506;28;20017;-57
2023/08/18 12:05:48;;;;;;;351.85;325.83;;;;;;;;;;5009626;28;20485;-57
2023/08/18 12:08:13;;;;;;;297.03;272.87;;;;;;;;;;5002622;28;20033;-58
2023/08/18 12:10:40;;;;;;;327.83;304.23;;;;;;;;;;5010428;28;20476;-57
2023/08/18 12:13:05;;;;;;;329.48;305.67;;;;;;;;;;5002726;28;20014;-57
2023/08/18 12:15:30;;;;;;;324.52;300.80;;;;;;;;;;4999930;28;20080;-57
2023/08/18 12:17:56;;;;;;;325.60;299.63;;;;;;;;;;5002183;28;20018;-57
2023/08/18 12:20:23;;;;;;;264.37;242.87;;;;;;;;;;5010900;28;20061;-58
2023/08/18 12:22:49;;;;;;;337.88;310.83;;;;;;;;;;5010791;28;20449;-57
2023/08/18 12:25:14;;;;;;;323.45;297.48;;;;;;;;;;5008257;28;20064;-57
2023/08/18 12:27:39;;;;;;;242.23;221.60;;;;;;;;;;5006617;28;20465;-57
2023/08/18 12:30:05;;;;;;;268.83;248.00;;;;;;;;;;5003279;28;20109;-58
2023/08/18 12:32:30;;;;;;;302.58;278.52;;;;;;;;;;5004164;28;20367;-58
2023/08/18 12:34:57;;;;;;;262.02;240.48;;;;;;;;;;4994754;28;20100;-58
2023/08/18 12:37:22;;;;;;;241.35;223.70;;;;;;;;;;4994757;28;20018;-57
2023/08/18 12:39:48;;;;;;;326.23;300.53;;;;;;;;;;4997639;28;20091;-57
2023/08/18 12:42:14;;;;;;;285.90;263.40;;;;;;;;;;5006097;28;20493;-57
2023/08/18 12:44:39;;;;;;;283.30;260.87;;;;;;;;;;5008700;28;20181;-57
2023/08/18 12:47:04;;;;;;;277.33;254.20;;;;;;;;;;5008784;28;20547;-57
2023/08/18 12:49:30;;;;;;;300.48;275.92;;;;;;;;;;5014220;28;20640;-56
2023/08/18 12:51:56;;;;;;;305.30;280.90;;;;;;;;;;5014251;28;20010;-58
2023/08/18 12:54:22;;;;;;;304.13;278.55;;;;;;;;;;5001168;28;20105;-58
2023/08/18 12:56:47;;;;;;;321.92;297.52;;;;;;;;;;5007649;28;20514;-58
2023/08/18 12:59:13;;;;;;;295.17;271.10;;;;;;;;;;5007803;28;20501;-58
2023/08/18 13:01:38;;;;;;;338.92;313.83;;;;;;;;;;5005707;28;20444;-58
2023/08/18 13:04:03;;;;;;;290.73;268.30;;;;;;;;;;5010041;28;20022;-59
2023/08/18 13:06:28;;;;;;;348.92;322.40;;;;;;;;;;4994054;28;20026;-58
2023/08/18 13:08:53;;;;;;;330.33;305.33;;;;;;;;;;5004570;28;20025;-57
2023/08/18 13:11:18;;;;;;;306.92;282.42;;;;;;;;;;5005632;28;20421;-57
2023/08/18 13:13:44;;;;;;;302.00;277.97;;;;;;;;;;5011948;28;20022;-58
2023/08/18 13:16:09;;;;;;;339.43;313.40;;;;;;;;;;4996979;28;20030;-59
2023/08/18 13:18:34;;;;;;;304.93;279.00;;;;;;;;;;5002600;28;20090;-57
2023/08/18 13:20:59;;;;;;;343.07;315.27;;;;;;;;;;5007575;28;20022;-58
2023/08/18 13:23:24;;;;;;;314.92;290.20;;;;;;;;;;5012556;28;20465;-57
2023/08/18 13:25:50;;;;;;;295.70;270.70;;;;;;;;;;5004799;28;20026;-58
2023/08/18 13:28:16;;;;;;;316.05;290.98;;;;;;;;;;5012762;28;20026;-57
2023/08/18 13:30:41;;;;;;;274.38;250.63;;;;;;;;;;5012858;28;20393;-56
2023/08/18 13:33:07;;;;;;;349.10;320.13;;;;;;;;;;5010201;28;20026;-57
2023/08/18 13:35:32;;;;;;;359.50;330.23;;;;;;;;;;4996423;28;20135;-57
2023/08/18 13:37:57;;;;;;;303.90;277.93;;;;;;;;;;5006723;28;20033;-59
2023/08/18 13:40:23;;;;;;;353.13;326.57;;;;;;;;;;5009181;28;20032;-57
2023/08/18 13:42:48;;;;;;;285.45;262.73;;;;;;;;;;5003616;28;20119;-58
2023/08/18 13:45:14;;;;;;;322.07;295.87;;;;;;;;;;5008403;28;20068;-59
2023/08/18 13:47:39;;;;;;;315.42;291.08;;;;;;;;;;5006354;28;20022;-57
2023/08/18 13:50:04;;;;;;;310.77;286.03;;;;;;;;;;4993839;28;20052;-58
2023/08/18 13:52:30;;;;;;;293.77;270.65;;;;;;;;;;5004026;28;20095;-59
2023/08/18 13:54:55;;;;;;;314.23;289.45;;;;;;;;;;5000511;28;20429;-57
2023/08/18 13:57:22;;;;;;;308.20;283.40;;;;;;;;;;5000930;28;20441;-57
2023/08/18 13:59:47;;;;;;;323.23;297.05;;;;;;;;;;5006611;28;20029;-57